Observations for LAWRENCE MUNICIPAL, MA (LWM)

KLWM 230826Z AUTO 00000KT 10SM FEW004 BKN014 OVC025 12/11 A2994 RMK AO2 T01170106
KLWM 230818Z AUTO 30003KT 10SM BKN004 BKN013 OVC049 12/11 A2995 RMK AO2 CIG 003V007 T01170106
KLWM 230754Z AUTO 29003KT 10SM BKN006 OVC048 12/11 A2995 RMK AO2 SLP142 T01170106   
KLWM 230728Z AUTO 00000KT 10SM FEW022 OVC047 12/11 A2994 RMK AO2 T01170106
KLWM 230740Z AUTO 31003KT 10SM SCT006 SCT022 OVC048 12/11 A2994 RMK AO2 T01170106
KLWM 230714Z AUTO 32004KT 10SM SCT003 BKN024 OVC044 12/11 A2995 RMK AO2 T01170106
KLWM 230654Z AUTO 00000KT 10SM BKN004 OVC042 12/11 A2995 RMK AO2 CIG 002V007 SLP142 T01170106   
KLWM 230554Z AUTO 01003KT 6SM BR OVC004 12/11 A2995 RMK AO2 CIG 002V007 SLP144 60014 T01170106 10122 20117 56013
KLWM 230549Z AUTO 36003KT 7SM OVC004 12/11 A2996 RMK AO2 CIG 002V007
KLWM 230454Z AUTO 00000KT 5SM BR OVC006 12/11 A2998 RMK AO2 CIG 003V009 SLP153 T01170106 401500106  
KLWM 230443Z AUTO 02003KT 3SM BR BKN003 OVC008 12/11 A2998 RMK AO2 CIG 003V007 T01170106
KLWM 230403Z AUTO 02005KT 2SM BR BKN003 OVC008 12/11 A2999 RMK AO2 CIG 002V006 T01170106
KLWM 230354Z AUTO 02004KT 3SM BR BKN003 OVC008 12/11 A2999 RMK AO2 SLP156 T01170106 
KLWM 230338Z AUTO 02004KT 2 1/2SM BR SCT003 OVC008 12/11 A3000 RMK AO2 T01170106
KLWM 230346Z AUTO 02004KT 3SM BR BKN004 OVC008 12/11 A3000 RMK AO2 T01170106
KLWM 230254Z AUTO 02005KT 2 1/2SM BR OVC004 12/11 A3001 RMK AO2 RAE43 CIG 002V006 SLP163 P0004 60014 T01170106 56009
KLWM 230232Z AUTO 04003KT 2 1/2SM -RA BR BKN004 OVC011 12/11 A3002 RMK AO2 P0004 T01170106
KLWM 230206Z AUTO 36003KT 3SM -RA BR BKN004 BKN009 OVC018 12/11 A3003 RMK AO2 P0001 T01170106
KLWM 230214Z AUTO 03003KT 2 1/2SM -RA BR BKN006 OVC018 12/11 A3002 RMK AO2 P0001 T01170106
KLWM 230222Z AUTO 01003KT 1 3/4SM -RA BR BKN004 OVC009 12/11 A3002 RMK AO2 P0003 T01170106
KLWM 230154Z AUTO 00000KT 3SM -RA BR FEW009 OVC018 12/11 A3002 RMK AO2 SLP167 P0005 T01170106   
KLWM 230138Z 00000KT 4SM -RA BR BKN007 OVC017 12/11 A3003 RMK AO2 P0005 T01170106
KLWM 230118Z 00000KT 2 1/2SM -RA BR OVC007 12/11 A3003 RMK AO2 CIG 005V010 P0002 T01170106
KLWM 230100Z 00000KT 3SM -RA BR OVC005 12/11 A3004 RMK AO2 CIG 003V008 P0001 T01170106
KLWM 230150Z 00000KT 3SM -RA BR SCT007 OVC018 12/11 A3002 RMK AO2 P0005
KLWM 230054Z 00000KT 2 1/2SM -RA BR OVC004 12/11 A3004 RMK AO2 CIG 003V007 SLP172 P0005 T01170106   
KLWM 230033Z 00000KT 3SM -RA BR OVC004 12/11 A3004 RMK AO2 CIG 003V009 P0002 T01170106
KLWM 230043Z 00000KT 2SM -RA BR OVC004 12/11 A3004 RMK AO2 P0004 T01170106
KLWM 230006Z 22003KT 2SM -RA BR BKN006 OVC012 12/11 A3004 RMK AO2 P0001 T01170106
KLWM 230015Z 00000KT 4SM -RA BR BKN004 OVC012 12/11 A3004 RMK AO2 CIG 004V007 P0002 T01170106
KLWM 230024Z 00000KT 3SM -RA BR OVC006 12/11 A3004 RMK AO2 CIG 004V009 P0002 T01170106
KLWM 222354Z 22003KT 1 3/4SM -RA BR BKN004 OVC012 12/11 A3004 RMK AO2 RAB03E22B25 SLP173 P0003 60006 T01170106 10117 20106 56009
KLWM 222332Z 00000KT 1 1/2SM -RA BR OVC006 12/11 A3005 RMK AO2 RAB03E22B25 CIG 003V009 P0001 T01170106
KLWM 222340Z 00000KT 1 3/4SM -RA BR OVC004 12/11 A3005 RMK AO2 RAB03E22B25 P0002 T01170106
KLWM 222322Z 00000KT 2 1/2SM BR OVC007 12/11 A3005 RMK AO2 RAB03E22 CIG 003V010P0001 T01170106
KLWM 222301Z 00000KT 1 3/4SM BR BKN007 OVC013 12/10 A3005 RMK AO2 CIG 005V010 T01170100
KLWM 222254Z 00000KT 4SM BR BKN007 BKN011 OVC016 12/10 A3005 RMK AO2 RAE06 SLP178 P0000 T01170100   
KLWM 222232Z 08003KT 2 1/2SM BR FEW009 OVC017 12/10 A3006 RMK AO2 RAE06 P0000 T01170100
KLWM 222242Z 07003KT 4SM BR FEW007 OVC015 12/10 A3006 RMK AO2 RAE06 P0000 T01170100
KLWM 222249Z VRB03KT 4SM BR SCT007 BKN011 OVC018 12/10 A3005 RMK AO2 RAE06 P0000
KLWM 222154Z 09003KT 10SM -RA OVC019 12/09 A3007 RMK AO2 RAB45 SLP182 P0000 T01170094   
KLWM 222054Z 12003KT 10SM FEW008 BKN023 OVC029 12/09 A3009 RMK AO2 RAE30 SLP189 P0000 60003 T01170094 58015 
KLWM 222043Z 00000KT 10SM SCT009 OVC029 12/09 A3009 RMK AO2 RAE30 P0000 T01170094
KLWM 222017Z 11003KT 8SM -RA SCT007 OVC031 11/09 A3010 RMK AO2 P0000 T01110094
KLWM 222003Z 13003KT 4SM -RA BR BKN007 BKN016 OVC031 11/09 A3011 RMK AO2 CIG 005V010 P0000 T01110094
KLWM 221954Z 10004KT 2 1/2SM -RA BR BKN007 BKN017 OVC031 11/09 A3012 RMK AO2 RAE07B54 SLP198 P0000 T01110094
KLWM 221907Z 00000KT 7SM SCT006 BKN010 OVC018 11/09 A3013 RMK AO2 RAE07 P0000 T01060089
KLWM 221923Z 14003KT 6SM BR OVC008 11/09 A3013 RMK AO2 RAE07 CIG 006V012 P0000 T01060089
KLWM 221858Z VRB04KT 4SM -RA BR BKN006 OVC018 11/09 A3013 RMK AO2 CIG 005V012 P0000 T01060089
KLWM 221854Z 12005KT 2 1/2SM -RA BR SCT006 BKN010 OVC018 11/09 A3013 RMK AO2 CIG 008V012 SLP204 P0003 T01060089 
KLWM 221843Z VRB03KT 3SM -RA BR SCT008 BKN020 OVC036 11/08 A3014 RMK AO2 P0002 T01060083
KLWM 221850Z 12006KT 2SM -RA BR SCT008 BKN018 OVC036 11/09 A3013 RMK AO2 P0002
KLWM 221754Z 12005KT 10SM -RA OVC038 11/07 A3015 RMK AO2 RAB54 SLP211 P0000 60001 T01110072 10128 20106 58018   
KLWM 221654Z VRB03KT 10SM BKN037 OVC044 11/07 A3019 RMK AO2 RAB15E46 SLP221 P0001 T01060072 
KLWM 221627Z VRB04KT 4SM -RA FEW016 OVC042 11/08 A3018 RMK AO2 RAB15 P0001 T01110078
KLWM 221554Z VRB04KT 10SM OVC040 12/06 A3019 RMK AO2 SLP223 T01220061   
KLWM 221454Z VRB04KT 10SM OVC048 13/07 A3021 RMK AO2 RAB01E19 SLP229 P0000 60000 T01280072 58007
KLWM 221354Z VRB04KT 10SM OVC055 12/08 A3022 RMK AO2 RAE1257B31E54 SLP233 P0000 T01220078   
KLWM 221254Z 20003KT 10SM -RA OVC055 12/08 A3022 RMK AO2 RAB1157E18B22 SLP234 P0000 T01220083   
KLWM 221154Z 00000KT 10SM OVC055 12/08 A3023 RMK AO2 RAE18B39E53 SLP236 P0000 60006 70006 T01170083 10144 20111 50002   
KLWM 221054Z AUTO 20004KT 10SM -RA OVC060 12/09 A3024 RMK AO2 SLP239 P0001 T01170089
KLWM 220954Z AUTO 00000KT 9SM -RA OVC070 11/09 A3022 RMK AO2 RAB05 SLP234 P0004 T01110089   
KLWM 220854Z AUTO 00000KT 10SM BKN075 OVC100 12/07 A3022 RMK AO2 RAB0759E45 SLP233 P0001 60001 T01220072 58002  
KLWM 220754Z AUTO 22005KT 10SM OVC075 13/07 A3024 RMK AO2 RAE04 SLP238 P0000 T01280067